Bozcaada Airport

TR-0008 · 恰纳卡莱省, 土耳其

使用的METAR站距离机场49 km。
罗盘
风向 的 风向 170° Bozcaada Airport 11/29
风: 7 kt, 3 beaufort

4 kt

6 kt
改变
0 ft 1.000 2.000 3.000 4.000 5.000
Cloud Cloud Cloud Cloud
SCT 3.500
METAR LTBH 231650Z 17007KT 9999 SCT035 14/11 Q1017

METAR Bozcaada Airport - TR-0008

Bozcaada Airport是,土耳其中的小机场。 该机场位于纬度39,83802和经度25,99430。 该机场有一条跑道: 11/29. 这个机场没有ICAO代码,我们使用TR-0008作为参考。 机场在Istanbul FIR中。

该航空气象观测是针对Çanakkale Airport在2024年2月23日 19:50, 当地时间进行的。

机场观察

风向为170°,速度为7 kt。

可见度为10 km 或者更多。

有疏云,零星散落的云朵在3.500 ft的高度。 没有观察到天花板。

温度和风寒是14 °C。 露点为11 °C,相对湿度为82%。 海平面上的气压为1017 hPa (QNH)。

白天

今天,太阳从07:58升起,在19:00降落。 这适用于Bozcaada Airport,世界夏令时可能有所不同。 当地时间与世界标准时间之间的时差为+3 小时。 当前,没有夏令时有效。

公司介绍

我们没有关于这个机场的公司信息。

体会

到Vliegles.nl去找飞行课程,跳伞和其他飞行体验。 浏览页面,了解Bozcaada Airport附近所有可用的活动。 你也可以使用搜索功能来寻找你所在地附近的特定飞行课程、跳伞或其他飞行体验。

跑道

Id 标题 侧风 逆风 侧风 %
11/29 115°-295° 6 kt 4 kt 82 %

逆风成分最大的方向会被突出显示,并用于横风计算。 这并不一定意味着这个方向在使用。

乌云

3.500 ft SCT 疏云,零星散落的云朵

温度 & 天气

温度 14 °C
露点 11 °C
相对湿度 82%
Kp-index 0 (0-9)

白天

日出
07:57 (11:42)
中午
13:27
日落
18:58

小工具

你想在你的网站上有一个关于Bozcaada Airport的当前航空天气(METAR)的小部件吗?

显示HTML代码
?>